Time;durP1;ratioP1;P1;durP2;ratioP2;P2;SDS_P1;SDS_P2;PMS_P1;PMS_P2;Temp;Humidity;BMP_temperature;BMP_pressure;BME280_temperature;BME280_humidity;BME280_pressure;Samples;Min_cycle;Max_cycle;Signal;HPM_P1;HPM_P2
2023/03/04 00:01:33;;;;;;;31.20;3.10;;;;;;;21.96;58.61;99845.16;7306966;19;129090;-40
2023/03/04 00:03:58;;;;;;;31.77;3.40;;;;;;;21.95;57.41;99833.03;7310907;19;129721;-46
2023/03/04 00:06:24;;;;;;;62.20;5.25;;;;;;;21.89;57.43;99832.75;7314923;19;129585;-40
2023/03/04 00:08:49;;;;;;;51.53;4.05;;;;;;;21.89;56.34;99833.59;7312555;19;129012;-40
2023/03/04 00:11:14;;;;;;;39.20;3.90;;;;;;;21.97;56.66;99830.28;7316332;19;130370;-42
2023/03/04 00:13:40;;;;;;;48.47;4.40;;;;;;;22.03;55.73;99831.53;7316690;19;129740;-41
2023/03/04 00:16:05;;;;;;;40.15;3.50;;;;;;;22.18;56.00;99827.56;7314433;19;129515;-39
2023/03/04 00:18:31;;;;;;;60.30;4.78;;;;;;;22.29;55.60;99825.63;7316047;19;129117;-40
2023/03/04 00:20:56;;;;;;;38.10;3.75;;;;;;;22.44;54.58;99820.78;7314294;19;130032;-39
2023/03/04 00:23:22;;;;;;;29.27;3.17;;;;;;;22.60;54.25;99819.28;7315427;19;129328;-44
2023/03/04 00:25:47;;;;;;;41.40;3.88;;;;;;;22.73;53.80;99819.81;7315383;19;128935;-41
2023/03/04 00:28:12;;;;;;;41.90;3.83;;;;;;;22.83;53.45;99819.78;7313124;19;129004;-42
2023/03/04 00:30:37;;;;;;;36.72;3.78;;;;;;;22.85;53.33;99813.44;7313632;19;129718;-39
2023/03/04 00:33:03;;;;;;;33.30;3.47;;;;;;;22.75;53.53;99804.75;7315239;19;128858;-43
2023/03/04 00:35:28;;;;;;;75.63;5.50;;;;;;;22.80;53.43;99814.81;7312748;19;129309;-41
2023/03/04 00:37:54;;;;;;;40.57;3.87;;;;;;;22.68;54.34;99808.91;7315952;19;131030;-45
2023/03/04 00:40:19;;;;;;;37.40;3.77;;;;;;;22.63;53.81;99802.44;7311990;19;130922;-38
2023/03/04 00:42:44;;;;;;;25.73;3.33;;;;;;;22.55;53.95;99799.69;7314157;19;130364;-42
2023/03/04 00:45:10;;;;;;;120.32;7.90;;;;;;;22.48;54.20;99804.63;7311443;19;130037;-42
2023/03/04 00:47:35;;;;;;;44.27;3.83;;;;;;;22.40;55.22;99803.69;7315420;19;129204;-42
2023/03/04 00:50:01;;;;;;;26.63;3.20;;;;;;;22.36;55.23;99800.50;7313142;19;129246;-41
2023/03/04 00:52:26;;;;;;;42.42;4.25;;;;;;;22.29;55.66;99793.34;7314667;19;129187;-40
2023/03/04 00:54:52;;;;;;;43.03;3.97;;;;;;;22.23;55.72;99802.59;7316137;19;128791;-39
2023/03/04 00:57:17;;;;;;;31.25;3.33;;;;;;;22.20;55.36;99791.56;7311101;19;129268;-41
2023/03/04 00:59:42;;;;;;;35.63;3.55;;;;;;;22.17;56.06;99797.91;7312907;19;129423;-40
2023/03/04 01:02:09;;;;;;;53.92;4.43;;;;;;;22.15;55.94;99791.97;7311049;19;129818;-46
2023/03/04 01:04:35;;;;;;;29.48;3.08;;;;;;;22.11;56.86;99789.78;7310873;19;129345;-40
2023/03/04 01:07:00;;;;;;;37.35;3.15;;;;;;;22.09;56.54;99786.47;7314131;19;129184;-45
2023/03/04 01:09:25;;;;;;;51.17;4.30;;;;;;;22.08;56.47;99782.22;7309022;19;129489;-40
2023/03/04 01:11:51;;;;;;;59.43;4.67;;;;;;;22.04;56.24;99778.19;7312679;19;129160;-37
2023/03/04 01:14:17;;;;;;;57.50;4.50;;;;;;;22.04;57.96;99775.59;7313847;19;129102;-38
2023/03/04 01:16:43;;;;;;;33.28;3.05;;;;;;;21.97;57.65;99772.69;7313471;19;129117;-39
2023/03/04 01:19:08;;;;;;;75.13;5.40;;;;;;;21.95;57.69;99770.22;7313171;19;128981;-44
2023/03/04 01:21:34;;;;;;;45.35;3.60;;;;;;;21.90;56.90;99761.94;7314032;19;129628;-40
2023/03/04 01:23:59;;;;;;;40.93;3.77;;;;;;;21.82;57.97;99748.72;7315833;19;128838;-41
2023/03/04 01:26:24;;;;;;;34.80;3.30;;;;;;;21.94;58.66;99750.25;7312682;19;129414;-42
2023/03/04 01:28:51;;;;;;;29.00;3.25;;;;;;;21.91;58.62;99753.13;7313836;19;129650;-40
2023/03/04 01:31:16;;;;;;;52.20;4.00;;;;;;;21.87;58.37;99754.38;7313235;19;129093;-37
2023/03/04 01:33:41;;;;;;;33.50;3.17;;;;;;;21.87;59.32;99751.75;7316185;19;129174;-40
2023/03/04 01:36:07;;;;;;;36.35;3.40;;;;;;;21.87;57.58;99751.75;7312772;19;130456;-39
2023/03/04 01:38:32;;;;;;;29.95;3.45;;;;;;;21.81;60.33;99752.31;7314007;19;129401;-39
2023/03/04 01:40:57;;;;;;;67.63;4.20;;;;;;;21.82;59.07;99746.09;7309776;19;129743;-44
2023/03/04 01:43:28;;;;;;;37.33;3.40;;;;;;;21.82;59.36;99738.25;7315766;19;129242;-37
2023/03/04 01:45:55;;;;;;;127.68;7.72;;;;;;;21.83;57.80;99739.91;7311471;19;130192;-42
2023/03/04 01:48:23;;;;;;;;;;;;;;;21.78;60.33;99736.88;7313300;19;130027;-40
2023/03/04 01:50:48;;;;;;;;;;;;;;;21.75;59.70;99742.34;7314067;19;129641;-40
2023/03/04 01:53:21;;;;;;;21.17;2.60;;;;;;;21.74;58.06;99735.47;7314799;19;128966;-42
2023/03/04 01:55:48;;;;;;;43.08;3.97;;;;;;;21.71;57.94;99735.75;7313015;19;128806;-38
2023/03/04 01:58:13;;;;;;;12.45;2.53;;;;;;;21.70;56.86;99728.84;7313337;19;129439;-38
2023/03/04 02:00:39;;;;;;;47.75;4.00;;;;;;;21.62;57.04;99707.78;7309745;19;129579;-42
2023/03/04 02:03:10;;;;;;;36.13;3.47;;;;;;;21.86;57.10;99723.09;7313743;19;128961;-41
2023/03/04 02:05:38;;;;;;;30.38;3.30;;;;;;;22.03;56.20;99719.78;7313599;19;128828;-41
2023/03/04 02:08:04;;;;;;;31.30;2.95;;;;;;;22.18;55.70;99713.13;7313097;19;131206;-42
2023/03/04 02:10:30;;;;;;;52.63;4.38;;;;;;;22.34;54.94;99712.56;7309943;19;130191;-37
2023/03/04 02:12:56;;;;;;;46.17;3.85;;;;;;;22.44;54.80;99710.75;7314208;19;128862;-40
2023/03/04 02:15:22;;;;;;;36.10;3.40;;;;;;;22.57;54.74;99714.75;7311862;19;129182;-40
2023/03/04 02:17:47;;;;;;;27.43;2.67;;;;;;;22.67;54.32;99710.31;7313121;19;129587;-41
2023/03/04 02:20:31;;;;;;;56.30;3.88;;;;;;;;;;7310617;19;130959;-39
2023/03/04 02:23:22;;;;;;;64.80;4.72;;;;;;;22.60;54.03;99703.13;7309417;19;129611;-39
2023/03/04 02:26:16;;;;;;;61.97;4.38;;;;;;;22.54;54.32;99708.97;7312337;19;129551;-37
2023/03/04 02:28:42;;;;;;;35.78;3.05;;;;;;;22.49;54.53;99705.91;7309015;19;129372;-39
2023/03/04 02:31:33;;;;;;;54.00;4.17;;;;;;;22.25;54.88;99681.97;7313450;19;129144;-43
2023/03/04 02:34:05;;;;;;;60.30;4.25;;;;;;;22.34;54.60;99702.09;7309084;19;129451;-37
2023/03/04 02:36:32;;;;;;;48.70;3.90;;;;;;;22.23;55.48;99695.22;7312965;19;128828;-36
2023/03/04 02:39:09;;;;;;;53.47;4.43;;;;;;;22.15;55.42;99696.91;7308711;19;130907;-43
2023/03/04 02:41:35;;;;;;;56.80;3.90;;;;;;;22.11;56.03;99693.75;7310439;19;129512;-38
2023/03/04 02:44:00;;;;;;;60.60;4.28;;;;;;;21.90;56.14;99672.94;7309439;19;129931;-42
2023/03/04 02:46:25;;;;;;;39.93;3.43;;;;;;;21.95;56.25;99683.00;7312434;19;128729;-43
2023/03/04 02:48:51;;;;;;;40.13;3.88;;;;;;;21.94;56.80;99684.81;7309525;19;129619;-39
2023/03/04 02:51:16;;;;;;;33.43;2.73;;;;;;;21.92;56.95;99683.28;7311605;19;129688;-39
2023/03/04 02:53:42;;;;;;;34.10;2.93;;;;;;;21.91;56.47;99679.03;7311889;19;129252;-40
2023/03/04 02:56:07;;;;;;;52.75;4.15;;;;;;;21.86;56.33;99671.59;7312264;19;128940;-37
2023/03/04 02:58:33;;;;;;;43.33;3.37;;;;;;;21.88;56.91;99676.69;7309940;19;129641;-35
2023/03/04 03:00:58;;;;;;;29.52;2.90;;;;;;;21.82;57.63;99670.22;7310097;19;129593;-40
2023/03/04 03:03:24;;;;;;;53.45;3.75;;;;;;;21.80;57.54;99666.06;7312844;19;130039;-40
2023/03/04 03:05:49;;;;;;;19.15;2.35;;;;;;;21.77;57.90;99661.94;7311596;19;129458;-38
2023/03/04 03:08:15;;;;;;;60.72;4.38;;;;;;;21.73;57.32;99660.53;7309500;19;129715;-40
2023/03/04 03:10:40;;;;;;;33.92;3.13;;;;;;;21.74;58.01;99662.19;7311090;19;129300;-40
2023/03/04 03:13:06;;;;;;;61.70;4.03;;;;;;;21.65;57.97;99649.94;7311576;19;129333;-42
2023/03/04 03:15:31;;;;;;;30.10;2.72;;;;;;;21.72;58.57;99664.13;7310961;19;128911;-39
2023/03/04 03:17:57;;;;;;;30.20;2.78;;;;;;;21.73;59.12;99665.75;7311896;19;130051;-38
2023/03/04 03:20:22;;;;;;;29.45;2.75;;;;;;;21.69;58.69;99659.16;7304977;19;130568;-39
2023/03/04 03:22:47;;;;;;;45.80;3.27;;;;;;;21.64;59.27;99650.91;7312675;19;129339;-38
2023/03/04 03:25:14;;;;;;;34.00;2.85;;;;;;;21.69;59.07;99658.34;7308194;19;129242;-39
2023/03/04 03:27:40;;;;;;;41.28;3.25;;;;;;;21.66;58.96;99649.00;7310894;19;129566;-37
2023/03/04 03:30:07;;;;;;;39.27;3.43;;;;;;;21.61;58.06;99653.81;7308358;19;129070;-38
2023/03/04 03:32:32;;;;;;;46.58;3.50;;;;;;;21.45;57.94;99631.78;7311152;19;129374;-43
2023/03/04 03:34:57;;;;;;;77.10;5.30;;;;;;;21.60;57.16;99654.75;7310304;19;129576;-40
2023/03/04 03:37:23;;;;;;;53.53;4.00;;;;;;;21.55;56.88;99625.56;7310419;19;129428;-34
2023/03/04 03:39:48;;;;;;;51.72;3.83;;;;;;;21.83;56.67;99655.34;7312356;19;129664;-44
2023/03/04 03:42:13;;;;;;;23.13;2.53;;;;;;;21.96;55.91;99646.19;7313916;19;128976;-37
2023/03/04 03:44:39;;;;;;;37.92;3.10;;;;;;;22.11;55.50;99648.38;7318229;19;128934;-40
2023/03/04 03:47:04;;;;;;;125.38;7.32;;;;;;;22.24;55.47;99649.75;7315664;19;129890;-38
2023/03/04 03:49:29;;;;;;;51.13;3.70;;;;;;;22.38;54.93;99646.66;7315703;19;129790;-40
2023/03/04 03:51:55;;;;;;;33.78;2.67;;;;;;;22.40;54.69;99626.38;7318257;19;128962;-42
2023/03/04 03:54:20;;;;;;;33.53;2.85;;;;;;;22.60;53.87;99635.00;7316001;19;129394;-40
2023/03/04 03:56:46;;;;;;;42.42;3.20;;;;;;;22.56;53.97;99639.72;7316369;19;129091;-39
2023/03/04 03:59:11;;;;;;;85.75;5.05;;;;;;;22.57;54.05;99645.78;7310875;19;129486;-40
2023/03/04 04:01:36;;;;;;;30.00;2.80;;;;;;;22.48;54.47;99643.97;7316842;19;128884;-42
2023/03/04 04:04:02;;;;;;;60.22;4.13;;;;;;;22.42;54.92;99640.16;7315752;19;129559;-36
2023/03/04 04:06:27;;;;;;;27.90;2.67;;;;;;;22.37;55.13;99649.41;7315839;19;129511;-42
2023/03/04 04:08:53;;;;;;;53.83;3.93;;;;;;;22.30;54.97;99633.44;7316688;19;129431;-37
2023/03/04 04:11:18;;;;;;;28.20;2.95;;;;;;;22.21;55.22;99641.34;7317532;19;128778;-38
2023/03/04 04:13:44;;;;;;;36.27;2.93;;;;;;;22.13;55.15;99651.69;7315698;19;128872;-41
2023/03/04 04:16:10;;;;;;;49.90;3.77;;;;;;;22.04;55.67;99660.38;7316173;19;129140;-40
2023/03/04 04:18:36;;;;;;;40.67;2.95;;;;;;;22.02;55.97;99659.69;7317077;19;129737;-47
2023/03/04 04:21:02;;;;;;;12.20;1.90;;;;;;;21.98;56.11;99653.09;7314337;19;130550;-40
2023/03/04 04:23:28;;;;;;;32.60;2.80;;;;;;;21.91;56.15;99653.66;7316646;19;129010;-43
2023/03/04 04:25:54;;;;;;;71.45;4.78;;;;;;;21.76;56.44;99634.13;7312718;19;129174;-39
2023/03/04 04:28:19;;;;;;;45.17;3.20;;;;;;;21.84;56.79;99646.50;7316587;19;129392;-40
2023/03/04 04:30:45;;;;;;;34.27;2.77;;;;;;;21.78;56.62;99658.34;7314892;19;129666;-44
2023/03/04 04:33:10;;;;;;;18.33;2.00;;;;;;;21.72;57.64;99653.66;7316536;19;130468;-39
2023/03/04 04:35:37;;;;;;;64.88;4.05;;;;;;;21.73;56.88;99659.72;7315507;19;129548;-38
2023/03/04 04:38:03;;;;;;;40.45;3.03;;;;;;;21.73;56.79;99652.69;7316720;19;130174;-41
2023/03/04 04:40:29;;;;;;;40.67;3.23;;;;;;;21.98;56.46;99653.09;7312274;19;131193;-39
2023/03/04 04:42:54;;;;;;;31.92;2.65;;;;;;;22.26;55.13;99631.25;7314699;19;129550;-39
2023/03/04 04:45:20;;;;;;;42.08;2.80;;;;;;;22.85;53.27;99650.06;7315685;19;129027;-37
2023/03/04 04:47:45;;;;;;;170.77;9.48;;;;;;;23.16;52.48;99628.63;7313663;19;129416;-40
2023/03/04 04:50:11;;;;;;;38.47;2.83;;;;;;;23.63;51.48;99642.38;7313379;19;129611;-37
2023/03/04 04:52:37;;;;;;;20.65;1.88;;;;;;;23.86;50.90;99648.78;7316581;19;128749;-43
2023/03/04 04:55:03;;;;;;;115.37;6.53;;;;;;;24.08;50.40;99640.41;7312625;19;130067;-41
2023/03/04 04:57:28;;;;;;;35.10;2.67;;;;;;;24.19;49.99;99634.09;7316967;19;129438;-37
2023/03/04 04:59:53;;;;;;;29.80;2.33;;;;;;;24.37;48.99;99634.84;7310537;19;130183;-40
2023/03/04 05:02:19;;;;;;;37.67;2.78;;;;;;;24.44;49.22;99639.31;7313823;19;129928;-40
2023/03/04 05:04:45;;;;;;;47.37;3.23;;;;;;;24.51;48.73;99634.25;7315683;19;129465;-42
2023/03/04 05:07:10;;;;;;;33.03;2.38;;;;;;;24.47;49.21;99617.16;7315132;19;130189;-36
2023/03/04 05:09:35;;;;;;;42.20;2.78;;;;;;;24.60;49.23;99637.75;7312963;19;129038;-40
2023/03/04 05:12:01;;;;;;;45.30;2.67;;;;;;;24.63;48.77;99632.16;7315124;19;128922;-37
2023/03/04 05:14:26;;;;;;;45.42;2.92;;;;;;;24.65;48.76;99619.69;7315543;19;129271;-44
2023/03/04 05:16:51;;;;;;;17.02;1.63;;;;;;;24.73;48.70;99630.25;7314772;19;129128;-42
2023/03/04 05:19:18;;;;;;;33.40;2.30;;;;;;;24.83;48.65;99636.22;7314303;19;129069;-37
2023/03/04 05:21:43;;;;;;;39.72;2.45;;;;;;;24.82;48.11;99637.22;7313796;19;128951;-38
2023/03/04 05:24:09;;;;;;;49.50;3.13;;;;;;;24.85;48.55;99627.19;7314176;19;130059;-40
2023/03/04 05:26:34;;;;;;;44.53;3.10;;;;;;;24.84;47.90;99630.78;7312721;19;130894;-39
2023/03/04 05:28:59;;;;;;;31.43;2.37;;;;;;;24.83;48.03;99623.06;7312903;19;129253;-35
2023/03/04 05:31:25;;;;;;;53.63;3.30;;;;;;;24.87;48.61;99619.16;7314779;19;129251;-40
2023/03/04 05:33:50;;;;;;;37.70;2.57;;;;;;;24.91;47.78;99620.47;7312675;19;129877;-42
2023/03/04 05:36:15;;;;;;;27.98;2.08;;;;;;;24.95;48.25;99616.53;7313044;19;131121;-38
2023/03/04 05:38:41;;;;;;;71.63;4.30;;;;;;;24.92;48.19;99616.84;7311680;19;129005;-42
2023/03/04 05:41:06;;;;;;;67.10;3.80;;;;;;;24.94;47.89;99620.16;7314043;19;130289;-43
2023/03/04 05:43:34;;;;;;;92.57;5.60;;;;;;;24.92;48.23;99612.44;7313291;19;130592;-37
2023/03/04 05:46:01;;;;;;;29.77;2.30;;;;;;;24.87;47.67;99587.59;7312284;19;130214;-37
2023/03/04 05:48:27;;;;;;;29.63;2.03;;;;;;;24.80;47.92;99594.47;7313595;19;129028;-43
2023/03/04 05:50:55;;;;;;;56.37;3.20;;;;;;;24.66;48.41;99601.13;7311186;19;129073;-38
2023/03/04 05:53:20;;;;;;;42.83;2.75;;;;;;;24.54;48.87;99596.31;7314595;19;129786;-37
2023/03/04 05:55:46;;;;;;;65.53;4.23;;;;;;;24.38;49.45;99608.41;7311167;19;129277;-38
2023/03/04 05:58:12;;;;;;;38.47;2.70;;;;;;;24.19;49.90;99606.03;7314961;19;129337;-40
2023/03/04 06:00:37;;;;;;;45.43;2.80;;;;;;;24.01;50.19;99610.53;7309841;19;130050;-41
2023/03/04 06:03:03;;;;;;;40.23;2.37;;;;;;;23.87;51.04;99613.66;7311557;19;129158;-41
2023/03/04 06:05:28;;;;;;;33.03;2.27;;;;;;;23.79;50.65;99605.72;7313276;19;129228;-35
2023/03/04 06:07:54;;;;;;;53.10;3.43;;;;;;;23.74;50.84;99608.00;7313621;19;129997;-40
2023/03/04 06:10:19;;;;;;;49.10;3.13;;;;;;;23.73;51.70;99598.47;7310894;19;128983;-40
2023/03/04 06:12:45;;;;;;;31.00;2.28;;;;;;;23.73;50.84;99605.53;7314369;19;129487;-38
2023/03/04 06:15:11;;;;;;;44.40;2.67;;;;;;;23.76;50.99;99602.59;7311715;19;129817;-39
2023/03/04 06:17:38;;;;;;;50.47;3.17;;;;;;;23.79;51.21;99589.97;7313073;19;129462;-38
2023/03/04 06:20:05;;;;;;;;;;;;;;;23.78;50.90;99598.84;7312449;19;128819;-42
2023/03/04 06:22:31;;;;;;;49.90;3.28;;;;;;;23.85;51.00;99594.59;7311656;19;129482;-40
2023/03/04 06:24:56;;;;;;;66.10;4.00;;;;;;;23.81;50.79;99587.19;7313080;19;130277;-40
2023/03/04 06:27:22;;;;;;;35.23;2.47;;;;;;;23.89;51.00;99598.59;7313653;19;129021;-40
2023/03/04 06:29:47;;;;;;;51.20;3.35;;;;;;;23.95;50.42;99603.22;7312329;19;129222;-39
2023/03/04 06:32:12;;;;;;;46.47;2.80;;;;;;;24.02;50.32;99599.03;7313677;19;130153;-39
2023/03/04 06:34:38;;;;;;;32.38;2.15;;;;;;;24.03;50.46;99608.53;7313870;19;129674;-37
2023/03/04 06:37:03;;;;;;;58.87;3.43;;;;;;;24.06;50.09;99603.00;7312134;19;130144;-41
2023/03/04 06:39:28;;;;;;;55.30;3.63;;;;;;;24.05;50.02;99601.34;7311935;19;129124;-41
2023/03/04 06:41:54;;;;;;;127.30;6.97;;;;;;;23.94;50.60;99604.19;7310012;19;129446;-42
2023/03/04 06:44:19;;;;;;;33.33;2.33;;;;;;;23.88;51.12;99604.00;7312195;19;130150;-39
2023/03/04 06:46:44;;;;;;;78.57;4.30;;;;;;;23.73;51.46;99608.97;7311652;19;128906;-43
2023/03/04 06:49:10;;;;;;;42.05;2.67;;;;;;;23.61;51.29;99598.84;7310358;19;129382;-38
2023/03/04 06:51:36;;;;;;;34.35;2.17;;;;;;;23.54;51.84;99601.28;7312309;19;129579;-41
2023/03/04 06:54:01;;;;;;;60.72;3.47;;;;;;;23.42;51.91;99597.22;7306790;19;130083;-41
2023/03/04 06:56:26;;;;;;;44.03;2.60;;;;;;;23.51;51.84;99611.25;7311010;19;129362;-38
2023/03/04 06:58:52;;;;;;;29.80;2.10;;;;;;;23.52;52.37;99600.59;7311565;19;129067;-38
2023/03/04 07:01:17;;;;;;;29.90;2.10;;;;;;;23.58;51.77;99602.63;7306949;19;129323;-46
2023/03/04 07:03:43;;;;;;;42.50;2.67;;;;;;;23.63;51.15;99607.41;7311728;19;130383;-36
2023/03/04 07:06:10;;;;;;;66.47;4.03;;;;;;;23.69;51.09;99610.25;7307418;19;130351;-40
2023/03/04 07:08:35;;;;;;;41.53;2.75;;;;;;;23.69;51.17;99605.00;7311922;19;129273;-41
2023/03/04 07:11:01;;;;;;;33.47;2.20;;;;;;;23.77;50.83;99606.84;7312242;19;129521;-37
2023/03/04 07:13:26;;;;;;;44.63;2.53;;;;;;;23.81;51.48;99603.78;7314123;19;129118;-38
2023/03/04 07:15:52;;;;;;;58.10;3.30;;;;;;;23.78;50.56;99588.34;7323646;19;128886;-47
2023/03/04 07:18:17;;;;;;;33.05;2.20;;;;;;;23.93;50.42;99599.91;7325124;19;128982;-42
2023/03/04 07:20:43;;;;;;;27.07;2.10;;;;;;;23.96;50.87;99581.25;7324376;19;129440;-39
2023/03/04 07:23:08;;;;;;;53.92;2.97;;;;;;;24.05;50.86;99603.13;7323602;19;131377;-41
2023/03/04 07:25:34;;;;;;;52.67;3.10;;;;;;;24.00;50.85;99598.34;7325329;19;129433;-41
2023/03/04 07:27:59;;;;;;;7.33;1.13;;;;;;;23.95;50.68;99600.59;7326018;19;129425;-43
2023/03/04 07:30:24;;;;;;;50.90;2.93;;;;;;;23.84;50.99;99598.22;7318934;19;129753;-40
2023/03/04 07:32:50;;;;;;;54.60;3.03;;;;;;;23.71;51.11;99597.81;7325282;19;129500;-40
2023/03/04 07:35:15;;;;;;;40.27;2.70;;;;;;;23.63;51.75;99600.38;7325792;19;128802;-41
2023/03/04 07:37:40;;;;;;;37.13;2.45;;;;;;;23.55;51.53;99596.84;7325074;19;129439;-39
2023/03/04 07:40:07;;;;;;;42.00;2.70;;;;;;;23.50;52.33;99599.94;7318691;19;129669;-39
2023/03/04 07:42:33;;;;;;;;;;;;;;;23.48;52.26;99588.78;7322430;19;130577;-40
2023/03/04 07:45:00;;;;;;;49.80;3.22;;;;;;;23.51;51.61;99593.72;7321041;19;130922;-38
2023/03/04 07:47:26;;;;;;;38.75;2.38;;;;;;;23.50;52.25;99594.69;7323175;19;131044;-37
2023/03/04 07:49:52;;;;;;;40.20;2.47;;;;;;;23.62;51.37;99601.31;7322880;19;130255;-41
2023/03/04 07:52:17;;;;;;;40.95;2.60;;;;;;;23.63;51.40;99589.88;7321835;19;129493;-39
2023/03/04 07:54:42;;;;;;;75.47;4.57;;;;;;;23.71;51.11;99603.06;7322984;19;128811;-46
2023/03/04 07:57:08;;;;;;;28.17;2.17;;;;;;;23.74;51.47;99594.88;7322674;19;129682;-39
2023/03/04 07:59:33;;;;;;;45.87;2.73;;;;;;;23.81;51.48;99600.31;7322704;19;128960;-39
2023/03/04 08:01:58;;;;;;;63.28;3.75;;;;;;;23.92;51.21;99595.63;7322090;19;129309;-38
2023/03/04 08:04:24;;;;;;;40.83;2.50;;;;;;;24.00;50.71;99593.09;7324585;19;128930;-40
2023/03/04 08:06:52;;;;;;;42.22;2.38;;;;;;;24.05;50.21;99596.09;7321631;19;130906;-37
2023/03/04 08:09:17;;;;;;;44.40;2.60;;;;;;;24.11;50.04;99587.56;7323215;19;129453;-41
2023/03/04 08:11:43;;;;;;;38.42;2.45;;;;;;;24.17;49.94;99592.22;7318846;19;130668;-39
2023/03/04 08:14:11;;;;;;;30.60;2.00;;;;;;;24.16;50.12;99585.28;7324986;19;129107;-40
2023/03/04 08:16:36;;;;;;;31.92;1.92;;;;;;;24.21;50.39;99580.41;7322021;19;129763;-40
2023/03/04 08:19:04;;;;;;;46.70;2.73;;;;;;;24.35;50.11;99576.38;7322622;19;129176;-39
2023/03/04 08:21:30;;;;;;;51.70;3.42;;;;;;;24.36;49.68;99573.56;7318063;19;129892;-37
2023/03/04 08:23:58;;;;;;;27.70;2.00;;;;;;;24.32;50.09;99581.94;7324488;19;129028;-38
2023/03/04 08:26:26;;;;;;;47.67;3.13;;;;;;;24.39;49.32;99575.88;7314138;19;128967;-38
2023/03/04 08:28:53;;;;;;;45.80;2.70;;;;;;;24.45;49.14;99577.91;7314286;19;130410;-40
2023/03/04 08:31:19;;;;;;;26.65;1.90;;;;;;;24.49;49.74;99575.78;7316383;19;129705;-40
2023/03/04 08:33:45;;;;;;;42.30;2.70;;;;;;;24.51;48.86;99575.63;7316636;19;129433;-39
2023/03/04 08:36:11;;;;;;;33.65;2.20;;;;;;;24.63;49.17;99569.06;7315185;19;129132;-37
2023/03/04 08:38:37;;;;;;;40.55;2.42;;;;;;;24.58;48.89;99561.66;7316458;19;130109;-40
2023/03/04 08:41:03;;;;;;;97.40;5.37;;;;;;;24.62;49.00;99567.44;7311381;19;129453;-40
2023/03/04 08:43:29;;;;;;;30.40;1.90;;;;;;;24.57;48.94;99574.97;7310286;19;130236;-45
2023/03/04 08:45:54;;;;;;;37.73;2.37;;;;;;;24.49;49.34;99573.94;7312559;19;129571;-39
2023/03/04 08:48:21;;;;;;;89.93;5.03;;;;;;;24.38;49.63;99568.16;7311851;19;129989;-37
2023/03/04 08:50:47;;;;;;;;;;;;;;;24.26;50.02;99580.75;7313463;19;129753;-45
2023/03/04 08:53:13;;;;;;;67.45;4.07;;;;;;;24.28;50.06;99572.72;7311881;19;129288;-41
2023/03/04 08:55:39;;;;;;;67.47;3.97;;;;;;;24.30;49.96;99578.63;7312693;19;129507;-38
2023/03/04 08:58:05;;;;;;;84.22;4.60;;;;;;;24.27;50.04;99574.53;7311342;19;129176;-39
2023/03/04 09:00:31;;;;;;;58.10;3.33;;;;;;;24.33;49.66;99573.91;7312148;19;129721;-43
2023/03/04 09:02:57;;;;;;;39.43;2.47;;;;;;;24.39;49.42;99573.25;7309586;19;130498;-44
2023/03/04 09:05:22;;;;;;;28.35;1.70;;;;;;;24.42;49.55;99570.34;7314075;19;129204;-42
2023/03/04 09:07:47;;;;;;;39.03;2.37;;;;;;;24.40;50.06;99574.91;7314886;19;129150;-40
2023/03/04 09:10:13;;;;;;;50.10;3.07;;;;;;;24.44;49.62;99564.91;7313874;19;129717;-39
2023/03/04 09:12:38;;;;;;;35.27;2.23;;;;;;;24.37;49.59;99554.22;7315706;19;128853;-38
2023/03/04 09:15:05;;;;;;;81.90;4.70;;;;;;;24.59;48.84;99567.75;7315093;19;129033;-39
2023/03/04 09:17:32;;;;;;;69.50;3.78;;;;;;;24.60;49.30;99579.91;7313814;19;129597;-37
2023/03/04 09:19:57;;;;;;;34.17;1.98;;;;;;;24.59;49.38;99573.00;7313380;19;129245;-38
2023/03/04 09:22:22;;;;;;;27.67;1.73;;;;;;;24.64;49.10;99573.34;7314659;19;130028;-37
2023/03/04 09:24:48;;;;;;;38.03;2.17;;;;;;;24.70;48.96;99576.19;7315314;19;129034;-41
2023/03/04 09:27:13;;;;;;;50.80;2.63;;;;;;;24.75;49.25;99575.72;7314936;19;130087;-42
2023/03/04 09:29:38;;;;;;;35.90;2.23;;;;;;;24.72;48.94;99576.03;7313243;19;129666;-40
2023/03/04 09:32:04;;;;;;;42.00;2.50;;;;;;;24.73;49.16;99564.53;7314887;19;129490;-43
2023/03/04 09:34:30;;;;;;;16.77;1.35;;;;;;;24.75;48.52;99568.66;7315679;19;128803;-36
2023/03/04 09:36:55;;;;;;;46.80;2.67;;;;;;;24.70;48.92;99559.59;7313181;19;129058;-42
2023/03/04 09:39:21;;;;;;;29.92;1.77;;;;;;;24.63;49.34;99566.44;7313691;19;131248;-42
2023/03/04 09:41:56;;;;;;;52.87;2.97;;;;;;;24.52;49.40;99559.69;7314437;19;129029;-41
2023/03/04 09:44:32;;;;;;;34.17;2.10;;;;;;;24.45;49.86;99567.38;7315293;19;129230;-39
2023/03/04 09:47:01;;;;;;;78.57;4.20;;;;;;;24.38;49.36;99568.16;7313924;19;129293;-42
2023/03/04 09:49:27;;;;;;;34.53;2.20;;;;;;;24.36;49.92;99557.00;7312450;19;129856;-40
2023/03/04 09:51:59;;;;;;;49.38;2.90;;;;;;;24.34;49.74;99553.72;7309632;19;130716;-41
2023/03/04 09:54:50;;;;;;;37.92;2.25;;;;;;;24.34;49.82;99553.72;7313484;19;129096;-42
2023/03/04 09:57:18;;;;;;;36.17;2.15;;;;;;;24.36;49.70;99557.00;7313216;19;130122;-40
2023/03/04 10:00:18;;;;;;;32.85;1.80;;;;;;;24.46;49.54;99557.69;7308273;19;129321;-41
2023/03/04 10:02:44;;;;;;;44.53;2.53;;;;;;;24.40;49.75;99543.38;7312660;19;129218;-41
2023/03/04 10:05:15;;;;;;;54.23;3.30;;;;;;;24.44;49.55;99539.44;7310355;19;129771;-42
2023/03/04 10:07:44;;;;;;;66.45;3.67;;;;;;;24.43;49.29;99537.81;7312434;19;129591;-37
2023/03/04 10:10:15;;;;;;;90.35;4.82;;;;;;;24.45;49.63;99540.28;7308029;19;130225;-42
2023/03/04 10:12:44;;;;;;;48.20;2.78;;;;;;;24.46;49.23;99537.47;7313269;19;129080;-36
2023/03/04 10:15:31;;;;;;;53.75;3.20;;;;;;;24.48;49.60;99527.63;7313224;19;129281;-41
2023/03/04 10:18:11;;;;;;;43.57;2.47;;;;;;;24.54;49.07;99531.44;7313759;19;129305;-37
2023/03/04 10:21:00;;;;;;;43.42;2.40;;;;;;;24.58;49.48;99532.75;7307416;19;129622;-38
2023/03/04 10:23:28;;;;;;;42.60;2.80;;;;;;;24.50;49.27;99514.34;7310044;19;129409;-37
2023/03/04 10:25:55;;;;;;;62.10;3.28;;;;;;;24.56;49.07;99531.28;7313485;19;128914;-40
2023/03/04 10:28:28;;;;;;;74.72;5.80;;;;;;;24.37;39.40;99517.44;7310485;19;130397;-41
2023/03/04 10:31:02;;;;;;;48.05;3.95;;;;;;;24.20;41.70;99526.22;7312496;19;129156;-38
2023/03/04 10:33:35;;;;;;;102.80;6.90;;;;;;;24.09;42.92;99523.88;7311992;19;129293;-37
2023/03/04 10:36:02;;;;;;;60.80;4.22;;;;;;;24.07;44.02;99525.84;7308292;19;130097;-42
2023/03/04 10:38:40;;;;;;;28.02;2.58;;;;;;;24.01;43.87;99536.16;7311213;19;129385;-39
2023/03/04 10:41:24;;;;;;;72.43;4.53;;;;;;;23.99;44.24;99531.06;7305482;19;129221;-36
2023/03/04 10:44:08;;;;;;;43.10;3.13;;;;;;;23.97;44.86;99513.75;7308601;19;130199;-39
2023/03/04 10:46:38;;;;;;;66.50;4.60;;;;;;;24.03;45.06;99521.88;7308819;19;129571;-40
2023/03/04 10:49:03;;;;;;;35.30;2.70;;;;;;;24.08;44.79;99527.47;7309920;19;129556;-40
2023/03/04 10:51:29;;;;;;;62.93;4.17;;;;;;;24.06;44.82;99513.69;7306606;19;129468;-43
2023/03/04 10:53:56;;;;;;;25.48;2.47;;;;;;;24.12;44.57;99518.31;7312470;19;128987;-41
2023/03/04 10:56:34;;;;;;;70.40;4.28;;;;;;;24.19;44.91;99513.25;7309550;19;129067;-36
2023/03/04 10:59:31;;;;;;;44.28;3.25;;;;;;;24.17;45.15;99513.41;7311604;19;129122;-37
2023/03/04 11:02:00;;;;;;;61.15;3.67;;;;;;;24.31;44.39;99519.88;7309756;19;129168;-38
2023/03/04 11:04:32;;;;;;;34.60;2.75;;;;;;;24.33;44.21;99510.84;7313365;19;128988;-38
2023/03/04 11:06:57;;;;;;;34.47;2.65;;;;;;;24.33;44.10;99510.00;7311474;19;128893;-41
2023/03/04 11:09:26;;;;;;;37.07;2.67;;;;;;;24.36;44.38;99505.25;7311587;19;129600;-39
2023/03/04 11:11:54;;;;;;;43.40;2.92;;;;;;;24.40;44.10;99509.22;7311734;19;129267;-42
2023/03/04 11:14:29;;;;;;;45.65;2.75;;;;;;;24.46;44.37;99513.81;7311333;19;128885;-44
2023/03/04 11:16:56;;;;;;;8.30;1.27;;;;;;;24.44;44.58;99497.38;7311129;19;129458;-40
2023/03/04 11:19:28;;;;;;;17.67;1.73;;;;;;;24.42;44.07;99498.53;7310328;19;129883;-39